sensor_id;sensor_type;location;lat;lon;timestamp;temperature;humidity
76787;DHT22;65739;51.482;5.702;2023-03-30T00:01:19;13.30;99.90
76787;DHT22;65739;51.482;5.702;2023-03-30T00:03:45;13.30;99.90
76787;DHT22;65739;51.482;5.702;2023-03-30T00:06:13;13.30;99.90
76787;DHT22;65739;51.482;5.702;2023-03-30T00:08:45;13.30;99.90
76787;DHT22;65739;51.482;5.702;2023-03-30T00:11:13;13.20;99.90
76787;DHT22;65739;51.482;5.702;2023-03-30T00:13:40;13.20;99.90
76787;DHT22;65739;51.482;5.702;2023-03-30T00:16:08;13.10;99.90
76787;DHT22;65739;51.482;5.702;2023-03-30T00:18:34;13.20;99.90
76787;DHT22;65739;51.482;5.702;2023-03-30T00:21:01;13.20;99.90
76787;DHT22;65739;51.482;5.702;2023-03-30T00:23:28;13.20;99.90
76787;DHT22;65739;51.482;5.702;2023-03-30T00:25:54;13.00;99.90
76787;DHT22;65739;51.482;5.702;2023-03-30T00:28:20;13.00;99.90
76787;DHT22;65739;51.482;5.702;2023-03-30T00:30:47;12.80;99.90
76787;DHT22;65739;51.482;5.702;2023-03-30T00:33:13;12.80;99.90
76787;DHT22;65739;51.482;5.702;2023-03-30T00:35:38;12.80;99.90
76787;DHT22;65739;51.482;5.702;2023-03-30T00:38:04;12.70;99.90
76787;DHT22;65739;51.482;5.702;2023-03-30T00:40:32;12.60;99.90
76787;DHT22;65739;51.482;5.702;2023-03-30T00:43:02;12.50;99.90
76787;DHT22;65739;51.482;5.702;2023-03-30T00:45:29;12.40;99.90
76787;DHT22;65739;51.482;5.702;2023-03-30T00:48:05;12.30;99.90
76787;DHT22;65739;51.482;5.702;2023-03-30T00:50:38;12.20;99.90
76787;DHT22;65739;51.482;5.702;2023-03-30T00:53:12;12.20;99.90
76787;DHT22;65739;51.482;5.702;2023-03-30T00:55:40;12.20;99.90
76787;DHT22;65739;51.482;5.702;2023-03-30T00:58:07;12.60;99.90
76787;DHT22;65739;51.482;5.702;2023-03-30T01:00:35;12.60;99.90
76787;DHT22;65739;51.482;5.702;2023-03-30T01:03:06;12.70;99.90
76787;DHT22;65739;51.482;5.702;2023-03-30T01:05:36;12.70;99.90
76787;DHT22;65739;51.482;5.702;2023-03-30T01:08:02;12.80;99.90
76787;DHT22;65739;51.482;5.702;2023-03-30T01:10:33;12.90;99.90
76787;DHT22;65739;51.482;5.702;2023-03-30T01:12:59;13.00;99.90
76787;DHT22;65739;51.482;5.702;2023-03-30T01:15:26;13.10;99.90
76787;DHT22;65739;51.482;5.702;2023-03-30T01:18:34;13.10;99.90
76787;DHT22;65739;51.482;5.702;2023-03-30T01:24:03;13.20;99.90
76787;DHT22;65739;51.482;5.702;2023-03-30T01:32:56;13.50;99.90
76787;DHT22;65739;51.482;5.702;2023-03-30T01:38:20;13.70;99.90
76787;DHT22;65739;51.482;5.702;2023-03-30T01:43:51;13.60;99.90
76787;DHT22;65739;51.482;5.702;2023-03-30T01:46:35;13.60;99.90
76787;DHT22;65739;51.482;5.702;2023-03-30T01:52:08;13.60;99.90
76787;DHT22;65739;51.482;5.702;2023-03-30T01:54:43;13.40;99.90
76787;DHT22;65739;51.482;5.702;2023-03-30T01:57:47;13.30;99.90
76787;DHT22;65739;51.482;5.702;2023-03-30T02:00:16;13.10;99.90
76787;DHT22;65739;51.482;5.702;2023-03-30T02:02:48;12.90;99.90
76787;DHT22;65739;51.482;5.702;2023-03-30T02:05:17;12.80;99.90
76787;DHT22;65739;51.482;5.702;2023-03-30T02:07:50;12.70;99.90
76787;DHT22;65739;51.482;5.702;2023-03-30T02:10:17;12.60;99.90
76787;DHT22;65739;51.482;5.702;2023-03-30T02:12:44;12.60;99.90
76787;DHT22;65739;51.482;5.702;2023-03-30T02:15:11;12.60;99.90
76787;DHT22;65739;51.482;5.702;2023-03-30T02:17:38;12.50;99.90
76787;DHT22;65739;51.482;5.702;2023-03-30T02:20:06;12.50;99.90
76787;DHT22;65739;51.482;5.702;2023-03-30T02:22:36;12.50;99.90
76787;DHT22;65739;51.482;5.702;2023-03-30T02:25:03;12.60;99.90
76787;DHT22;65739;51.482;5.702;2023-03-30T02:27:31;12.70;99.90
76787;DHT22;65739;51.482;5.702;2023-03-30T02:29:58;12.80;99.90
76787;DHT22;65739;51.482;5.702;2023-03-30T02:32:32;12.90;99.90
76787;DHT22;65739;51.482;5.702;2023-03-30T02:37:50;12.70;99.90
76787;DHT22;65739;51.482;5.702;2023-03-30T02:40:21;12.60;99.90
76787;DHT22;65739;51.482;5.702;2023-03-30T02:45:18;12.80;99.90
76787;DHT22;65739;51.482;5.702;2023-03-30T02:51:13;13.30;99.90
76787;DHT22;65739;51.482;5.702;2023-03-30T02:53:56;13.20;99.90
76787;DHT22;65739;51.482;5.702;2023-03-30T02:59:25;13.30;99.90
76787;DHT22;65739;51.482;5.702;2023-03-30T03:01:58;13.30;99.90
76787;DHT22;65739;51.482;5.702;2023-03-30T03:04:26;13.30;99.90
76787;DHT22;65739;51.482;5.702;2023-03-30T03:06:53;13.30;99.90
76787;DHT22;65739;51.482;5.702;2023-03-30T03:09:20;13.10;99.90
76787;DHT22;65739;51.482;5.702;2023-03-30T03:11:50;13.10;99.90
76787;DHT22;65739;51.482;5.702;2023-03-30T03:14:15;13.10;99.90
76787;DHT22;65739;51.482;5.702;2023-03-30T03:16:41;13.10;99.90
76787;DHT22;65739;51.482;5.702;2023-03-30T03:19:07;13.10;99.90
76787;DHT22;65739;51.482;5.702;2023-03-30T03:21:33;13.10;99.90
76787;DHT22;65739;51.482;5.702;2023-03-30T03:23:58;13.10;99.90
76787;DHT22;65739;51.482;5.702;2023-03-30T03:26:24;13.20;99.90
76787;DHT22;65739;51.482;5.702;2023-03-30T03:28:51;13.20;99.90
76787;DHT22;65739;51.482;5.702;2023-03-30T03:31:17;13.20;99.90
76787;DHT22;65739;51.482;5.702;2023-03-30T03:33:42;13.20;99.90
76787;DHT22;65739;51.482;5.702;2023-03-30T03:36:08;13.20;99.90
76787;DHT22;65739;51.482;5.702;2023-03-30T03:38:36;13.30;99.90
76787;DHT22;65739;51.482;5.702;2023-03-30T03:41:02;13.30;99.90
76787;DHT22;65739;51.482;5.702;2023-03-30T03:43:27;13.40;99.90
76787;DHT22;65739;51.482;5.702;2023-03-30T03:45:53;13.40;99.90
76787;DHT22;65739;51.482;5.702;2023-03-30T03:48:21;13.50;99.90
76787;DHT22;65739;51.482;5.702;2023-03-30T03:50:56;13.60;99.90
76787;DHT22;65739;51.482;5.702;2023-03-30T03:53:23;13.60;99.90
76787;DHT22;65739;51.482;5.702;2023-03-30T03:55:49;13.60;99.90
76787;DHT22;65739;51.482;5.702;2023-03-30T03:58:15;13.60;99.90
76787;DHT22;65739;51.482;5.702;2023-03-30T04:00:41;13.60;99.90
76787;DHT22;65739;51.482;5.702;2023-03-30T04:03:07;13.60;99.90
76787;DHT22;65739;51.482;5.702;2023-03-30T04:05:34;13.80;99.90
76787;DHT22;65739;51.482;5.702;2023-03-30T04:08:00;13.80;99.90
76787;DHT22;65739;51.482;5.702;2023-03-30T04:10:26;13.70;99.90
76787;DHT22;65739;51.482;5.702;2023-03-30T04:12:54;13.80;99.90
76787;DHT22;65739;51.482;5.702;2023-03-30T04:15:20;13.70;99.90
76787;DHT22;65739;51.482;5.702;2023-03-30T04:17:45;13.80;99.90
76787;DHT22;65739;51.482;5.702;2023-03-30T04:20:14;13.80;99.90
76787;DHT22;65739;51.482;5.702;2023-03-30T04:22:41;13.90;99.90
76787;DHT22;65739;51.482;5.702;2023-03-30T04:25:11;13.90;99.90
76787;DHT22;65739;51.482;5.702;2023-03-30T04:27:39;13.70;99.90
76787;DHT22;65739;51.482;5.702;2023-03-30T04:30:08;13.70;99.90
76787;DHT22;65739;51.482;5.702;2023-03-30T04:32:34;13.70;99.90
76787;DHT22;65739;51.482;5.702;2023-03-30T04:35:07;13.80;99.90
76787;DHT22;65739;51.482;5.702;2023-03-30T04:37:33;13.70;99.90
76787;DHT22;65739;51.482;5.702;2023-03-30T04:40:00;13.60;99.90
76787;DHT22;65739;51.482;5.702;2023-03-30T04:42:27;13.60;99.90
76787;DHT22;65739;51.482;5.702;2023-03-30T04:44:58;13.70;99.90
76787;DHT22;65739;51.482;5.702;2023-03-30T04:47:25;13.80;99.90
76787;DHT22;65739;51.482;5.702;2023-03-30T04:49:51;13.70;99.90
76787;DHT22;65739;51.482;5.702;2023-03-30T04:52:17;13.60;99.90
76787;DHT22;65739;51.482;5.702;2023-03-30T04:54:43;13.50;99.90
76787;DHT22;65739;51.482;5.702;2023-03-30T04:57:09;13.50;99.90
76787;DHT22;65739;51.482;5.702;2023-03-30T04:59:34;13.50;99.90
76787;DHT22;65739;51.482;5.702;2023-03-30T05:02:00;13.60;99.90
76787;DHT22;65739;51.482;5.702;2023-03-30T05:04:28;13.60;99.90
76787;DHT22;65739;51.482;5.702;2023-03-30T05:06:53;13.70;99.90
76787;DHT22;65739;51.482;5.702;2023-03-30T05:09:19;13.70;99.90
76787;DHT22;65739;51.482;5.702;2023-03-30T05:11:46;13.70;99.90
76787;DHT22;65739;51.482;5.702;2023-03-30T05:14:11;13.70;99.90
76787;DHT22;65739;51.482;5.702;2023-03-30T05:16:37;13.70;99.90
76787;DHT22;65739;51.482;5.702;2023-03-30T05:19:02;13.80;99.90
76787;DHT22;65739;51.482;5.702;2023-03-30T05:21:28;13.80;99.90
76787;DHT22;65739;51.482;5.702;2023-03-30T05:23:55;13.90;99.90
76787;DHT22;65739;51.482;5.702;2023-03-30T05:26:21;14.00;99.90
76787;DHT22;65739;51.482;5.702;2023-03-30T05:28:48;14.00;99.90
76787;DHT22;65739;51.482;5.702;2023-03-30T05:31:14;14.10;99.90
76787;DHT22;65739;51.482;5.702;2023-03-30T05:33:41;14.10;99.90
76787;DHT22;65739;51.482;5.702;2023-03-30T05:36:07;14.10;99.90
76787;DHT22;65739;51.482;5.702;2023-03-30T05:38:33;14.20;99.90
76787;DHT22;65739;51.482;5.702;2023-03-30T05:40:59;14.10;99.90
76787;DHT22;65739;51.482;5.702;2023-03-30T05:43:24;14.20;99.90
76787;DHT22;65739;51.482;5.702;2023-03-30T05:45:50;14.20;99.90
76787;DHT22;65739;51.482;5.702;2023-03-30T05:48:15;14.10;99.90
76787;DHT22;65739;51.482;5.702;2023-03-30T05:50:41;14.20;99.90
76787;DHT22;65739;51.482;5.702;2023-03-30T05:53:07;14.20;99.90
76787;DHT22;65739;51.482;5.702;2023-03-30T05:55:32;14.20;99.90
76787;DHT22;65739;51.482;5.702;2023-03-30T05:57:58;14.10;99.90
76787;DHT22;65739;51.482;5.702;2023-03-30T06:00:24;13.90;99.90
76787;DHT22;65739;51.482;5.702;2023-03-30T06:02:50;13.80;99.90
76787;DHT22;65739;51.482;5.702;2023-03-30T06:05:16;13.50;99.90
76787;DHT22;65739;51.482;5.702;2023-03-30T06:07:42;13.20;99.90
76787;DHT22;65739;51.482;5.702;2023-03-30T06:10:10;13.00;99.90
76787;DHT22;65739;51.482;5.702;2023-03-30T06:12:35;12.60;99.90
76787;DHT22;65739;51.482;5.702;2023-03-30T06:15:04;12.30;99.90
76787;DHT22;65739;51.482;5.702;2023-03-30T06:17:29;12.10;99.90
76787;DHT22;65739;51.482;5.702;2023-03-30T06:19:56;12.00;99.90
76787;DHT22;65739;51.482;5.702;2023-03-30T06:22:21;11.90;99.90
76787;DHT22;65739;51.482;5.702;2023-03-30T06:24:47;11.90;99.90
76787;DHT22;65739;51.482;5.702;2023-03-30T06:27:16;11.80;99.90
76787;DHT22;65739;51.482;5.702;2023-03-30T06:29:41;11.80;99.90
76787;DHT22;65739;51.482;5.702;2023-03-30T06:32:07;11.80;99.90
76787;DHT22;65739;51.482;5.702;2023-03-30T06:34:33;11.80;99.90
76787;DHT22;65739;51.482;5.702;2023-03-30T06:36:58;11.80;99.90
76787;DHT22;65739;51.482;5.702;2023-03-30T06:39:24;11.80;99.90
76787;DHT22;65739;51.482;5.702;2023-03-30T06:41:50;11.70;99.90
76787;DHT22;65739;51.482;5.702;2023-03-30T06:44:15;11.70;99.90
76787;DHT22;65739;51.482;5.702;2023-03-30T06:46:41;11.70;99.90
76787;DHT22;65739;51.482;5.702;2023-03-30T06:49:07;11.60;99.90
76787;DHT22;65739;51.482;5.702;2023-03-30T06:51:33;11.50;99.90
76787;DHT22;65739;51.482;5.702;2023-03-30T06:54:02;11.50;99.90
76787;DHT22;65739;51.482;5.702;2023-03-30T06:56:28;11.50;99.90
76787;DHT22;65739;51.482;5.702;2023-03-30T06:58:54;11.50;99.90
76787;DHT22;65739;51.482;5.702;2023-03-30T07:01:21;11.50;99.90
76787;DHT22;65739;51.482;5.702;2023-03-30T07:03:47;11.50;99.90
76787;DHT22;65739;51.482;5.702;2023-03-30T07:06:12;11.60;99.90
76787;DHT22;65739;51.482;5.702;2023-03-30T07:08:58;11.60;99.90
76787;DHT22;65739;51.482;5.702;2023-03-30T07:11:29;11.80;99.90
76787;DHT22;65739;51.482;5.702;2023-03-30T07:13:55;11.90;99.90
76787;DHT22;65739;51.482;5.702;2023-03-30T07:16:23;12.10;99.90
76787;DHT22;65739;51.482;5.702;2023-03-30T07:18:48;12.00;99.90
76787;DHT22;65739;51.482;5.702;2023-03-30T07:21:14;12.00;99.90
76787;DHT22;65739;51.482;5.702;2023-03-30T07:23:39;12.10;99.90
76787;DHT22;65739;51.482;5.702;2023-03-30T07:26:07;12.30;99.90
76787;DHT22;65739;51.482;5.702;2023-03-30T07:28:34;12.30;99.90
76787;DHT22;65739;51.482;5.702;2023-03-30T07:31:12;12.40;99.90
76787;DHT22;65739;51.482;5.702;2023-03-30T07:33:38;12.60;99.90
76787;DHT22;65739;51.482;5.702;2023-03-30T07:36:05;12.60;99.90
76787;DHT22;65739;51.482;5.702;2023-03-30T07:38:32;12.70;99.90
76787;DHT22;65739;51.482;5.702;2023-03-30T07:40:58;12.80;99.90
76787;DHT22;65739;51.482;5.702;2023-03-30T07:43:24;12.90;99.90
76787;DHT22;65739;51.482;5.702;2023-03-30T07:45:51;12.90;99.90
76787;DHT22;65739;51.482;5.702;2023-03-30T07:48:17;13.10;99.90
76787;DHT22;65739;51.482;5.702;2023-03-30T07:50:42;13.20;99.90
76787;DHT22;65739;51.482;5.702;2023-03-30T07:53:08;13.20;99.90
76787;DHT22;65739;51.482;5.702;2023-03-30T07:55:34;13.30;99.90
76787;DHT22;65739;51.482;5.702;2023-03-30T07:58:00;13.40;99.90
76787;DHT22;65739;51.482;5.702;2023-03-30T08:00:25;13.40;99.90
76787;DHT22;65739;51.482;5.702;2023-03-30T08:02:51;13.70;99.90
76787;DHT22;65739;51.482;5.702;2023-03-30T08:05:17;13.90;99.90
76787;DHT22;65739;51.482;5.702;2023-03-30T08:07:43;14.00;99.90
76787;DHT22;65739;51.482;5.702;2023-03-30T08:10:10;14.10;99.90
76787;DHT22;65739;51.482;5.702;2023-03-30T08:12:36;14.30;99.90
76787;DHT22;65739;51.482;5.702;2023-03-30T08:15:02;14.40;99.90
76787;DHT22;65739;51.482;5.702;2023-03-30T08:17:28;14.70;99.90
76787;DHT22;65739;51.482;5.702;2023-03-30T08:19:53;14.80;99.90
76787;DHT22;65739;51.482;5.702;2023-03-30T08:22:21;14.70;99.90
76787;DHT22;65739;51.482;5.702;2023-03-30T08:24:46;14.70;99.90
76787;DHT22;65739;51.482;5.702;2023-03-30T08:27:12;14.80;99.90
76787;DHT22;65739;51.482;5.702;2023-03-30T08:29:38;14.70;99.90
76787;DHT22;65739;51.482;5.702;2023-03-30T08:32:03;14.60;99.90
76787;DHT22;65739;51.482;5.702;2023-03-30T08:34:30;14.80;99.90
76787;DHT22;65739;51.482;5.702;2023-03-30T08:36:55;14.70;99.90
76787;DHT22;65739;51.482;5.702;2023-03-30T08:39:22;14.60;99.90
76787;DHT22;65739;51.482;5.702;2023-03-30T08:44:43;14.20;99.90
76787;DHT22;65739;51.482;5.702;2023-03-30T08:47:13;14.10;99.90
76787;DHT22;65739;51.482;5.702;2023-03-30T08:49:43;14.00;99.90
76787;DHT22;65739;51.482;5.702;2023-03-30T08:52:18;14.00;99.90
76787;DHT22;65739;51.482;5.702;2023-03-30T08:54:45;13.90;99.90
76787;DHT22;65739;51.482;5.702;2023-03-30T08:59:44;13.90;99.90
76787;DHT22;65739;51.482;5.702;2023-03-30T09:02:23;14.20;99.90
76787;DHT22;65739;51.482;5.702;2023-03-30T09:05:15;14.60;99.90
76787;DHT22;65739;51.482;5.702;2023-03-30T09:10:15;15.20;99.90
76787;DHT22;65739;51.482;5.702;2023-03-30T09:13:14;14.90;99.90
76787;DHT22;65739;51.482;5.702;2023-03-30T09:16:15;14.80;99.90
76787;DHT22;65739;51.482;5.702;2023-03-30T09:18:46;14.70;99.90
76787;DHT22;65739;51.482;5.702;2023-03-30T09:21:13;14.80;99.90
76787;DHT22;65739;51.482;5.702;2023-03-30T09:23:39;15.00;99.90
76787;DHT22;65739;51.482;5.702;2023-03-30T09:26:17;15.20;99.90
76787;DHT22;65739;51.482;5.702;2023-03-30T09:28:51;15.60;99.90
76787;DHT22;65739;51.482;5.702;2023-03-30T09:31:38;15.60;99.90
76787;DHT22;65739;51.482;5.702;2023-03-30T09:39:24;14.90;99.90
76787;DHT22;65739;51.482;5.702;2023-03-30T09:44:47;15.00;99.90
76787;DHT22;65739;51.482;5.702;2023-03-30T09:47:28;14.90;99.90
76787;DHT22;65739;51.482;5.702;2023-03-30T09:50:22;14.70;99.90
76787;DHT22;65739;51.482;5.702;2023-03-30T09:53:06;14.60;99.90
76787;DHT22;65739;51.482;5.702;2023-03-30T09:55:54;14.60;99.90
76787;DHT22;65739;51.482;5.702;2023-03-30T09:58:26;14.80;99.90
76787;DHT22;65739;51.482;5.702;2023-03-30T10:01:09;15.00;99.90
76787;DHT22;65739;51.482;5.702;2023-03-30T10:03:38;15.20;99.90
76787;DHT22;65739;51.482;5.702;2023-03-30T10:06:06;15.50;99.90
76787;DHT22;65739;51.482;5.702;2023-03-30T10:08:37;15.70;99.90
76787;DHT22;65739;51.482;5.702;2023-03-30T10:11:03;16.00;99.90
76787;DHT22;65739;51.482;5.702;2023-03-30T10:13:41;16.00;99.90
76787;DHT22;65739;51.482;5.702;2023-03-30T10:16:16;15.60;99.90
76787;DHT22;65739;51.482;5.702;2023-03-30T10:18:45;15.20;99.90
76787;DHT22;65739;51.482;5.702;2023-03-30T10:21:20;15.30;99.90
76787;DHT22;65739;51.482;5.702;2023-03-30T10:24:19;15.20;99.90
76787;DHT22;65739;51.482;5.702;2023-03-30T10:26:55;15.00;99.90
76787;DHT22;65739;51.482;5.702;2023-03-30T10:29:24;15.10;99.90
76787;DHT22;65739;51.482;5.702;2023-03-30T10:32:02;15.20;99.90
76787;DHT22;65739;51.482;5.702;2023-03-30T10:34:44;15.20;99.90
76787;DHT22;65739;51.482;5.702;2023-03-30T10:37:15;15.80;99.90
76787;DHT22;65739;51.482;5.702;2023-03-30T10:39:42;16.50;99.90
76787;DHT22;65739;51.482;5.702;2023-03-30T10:42:14;16.60;99.90
76787;DHT22;65739;51.482;5.702;2023-03-30T10:44:45;16.80;99.90
76787;DHT22;65739;51.482;5.702;2023-03-30T10:55:49;15.80;99.90
76787;DHT22;65739;51.482;5.702;2023-03-30T10:58:31;15.60;99.90
76787;DHT22;65739;51.482;5.702;2023-03-30T11:03:46;16.70;99.90
76787;DHT22;65739;51.482;5.702;2023-03-30T11:06:20;17.00;99.90
76787;DHT22;65739;51.482;5.702;2023-03-30T11:08:49;17.30;99.90
76787;DHT22;65739;51.482;5.702;2023-03-30T11:11:20;16.90;99.90
76787;DHT22;65739;51.482;5.702;2023-03-30T11:13:58;16.70;99.90
76787;DHT22;65739;51.482;5.702;2023-03-30T11:16:47;16.60;99.90
76787;DHT22;65739;51.482;5.702;2023-03-30T11:19:39;16.70;99.90
76787;DHT22;65739;51.482;5.702;2023-03-30T11:22:16;16.50;99.90
76787;DHT22;65739;51.482;5.702;2023-03-30T11:24:56;16.20;99.90
76787;DHT22;65739;51.482;5.702;2023-03-30T11:27:39;16.10;99.90
76787;DHT22;65739;51.482;5.702;2023-03-30T11:30:20;16.80;99.90
76787;DHT22;65739;51.482;5.702;2023-03-30T11:33:14;17.20;99.90
76787;DHT22;65739;51.482;5.702;2023-03-30T11:35:52;17.00;99.90
76787;DHT22;65739;51.482;5.702;2023-03-30T11:38:31;16.60;99.90
76787;DHT22;65739;51.482;5.702;2023-03-30T11:41:10;16.30;99.90
76787;DHT22;65739;51.482;5.702;2023-03-30T11:43:37;15.80;99.90
76787;DHT22;65739;51.482;5.702;2023-03-30T11:56:48;16.20;99.90
76787;DHT22;65739;51.482;5.702;2023-03-30T12:02:17;16.40;99.90
76787;DHT22;65739;51.482;5.702;2023-03-30T12:05:05;16.60;99.90
76787;DHT22;65739;51.482;5.702;2023-03-30T12:10:39;17.40;99.90
76787;DHT22;65739;51.482;5.702;2023-03-30T12:13:13;17.90;99.90
76787;DHT22;65739;51.482;5.702;2023-03-30T12:15:59;17.70;99.90
76787;DHT22;65739;51.482;5.702;2023-03-30T12:18:37;16.90;99.90
76787;DHT22;65739;51.482;5.702;2023-03-30T12:24:12;15.40;99.90
76787;DHT22;65739;51.482;5.702;2023-03-30T12:26:40;15.30;99.90
76787;DHT22;65739;51.482;5.702;2023-03-30T12:29:16;16.00;99.90
76787;DHT22;65739;51.482;5.702;2023-03-30T12:32:03;16.60;99.90
76787;DHT22;65739;51.482;5.702;2023-03-30T12:34:37;16.90;99.90
76787;DHT22;65739;51.482;5.702;2023-03-30T12:37:10;17.00;99.90
76787;DHT22;65739;51.482;5.702;2023-03-30T12:39:55;17.20;99.90
76787;DHT22;65739;51.482;5.702;2023-03-30T12:42:29;16.80;99.90
76787;DHT22;65739;51.482;5.702;2023-03-30T12:45:17;16.70;99.90
76787;DHT22;65739;51.482;5.702;2023-03-30T12:48:15;16.90;99.90
76787;DHT22;65739;51.482;5.702;2023-03-30T12:50:51;16.70;99.90
76787;DHT22;65739;51.482;5.702;2023-03-30T12:56:07;16.00;99.90
76787;DHT22;65739;51.482;5.702;2023-03-30T13:01:38;16.00;99.90
76787;DHT22;65739;51.482;5.702;2023-03-30T13:04:18;16.60;99.90
76787;DHT22;65739;51.482;5.702;2023-03-30T13:06:51;17.20;99.90
76787;DHT22;65739;51.482;5.702;2023-03-30T13:19:40;16.60;99.90
76787;DHT22;65739;51.482;5.702;2023-03-30T13:30:09;16.10;99.90
76787;DHT22;65739;51.482;5.702;2023-03-30T13:35:33;16.60;99.90
76787;DHT22;65739;51.482;5.702;2023-03-30T13:40:55;16.90;99.90
76787;DHT22;65739;51.482;5.702;2023-03-30T13:46:46;17.80;99.90
76787;DHT22;65739;51.482;5.702;2023-03-30T13:51:45;17.80;99.90
76787;DHT22;65739;51.482;5.702;2023-03-30T13:54:26;17.50;99.90
76787;DHT22;65739;51.482;5.702;2023-03-30T13:57:15;17.70;99.90
76787;DHT22;65739;51.482;5.702;2023-03-30T13:59:46;17.80;99.90
76787;DHT22;65739;51.482;5.702;2023-03-30T14:02:15;17.90;99.90
76787;DHT22;65739;51.482;5.702;2023-03-30T14:04:42;18.00;99.90
76787;DHT22;65739;51.482;5.702;2023-03-30T14:07:29;17.60;99.90
76787;DHT22;65739;51.482;5.702;2023-03-30T14:10:13;17.10;99.90
76787;DHT22;65739;51.482;5.702;2023-03-30T14:12:40;16.70;99.90
76787;DHT22;65739;51.482;5.702;2023-03-30T14:15:17;16.00;99.90
76787;DHT22;65739;51.482;5.702;2023-03-30T14:17:56;15.20;99.90
76787;DHT22;65739;51.482;5.702;2023-03-30T14:26:01;12.80;99.90
76787;DHT22;65739;51.482;5.702;2023-03-30T14:28:29;12.60;99.90
76787;DHT22;65739;51.482;5.702;2023-03-30T14:31:00;12.90;99.90
76787;DHT22;65739;51.482;5.702;2023-03-30T14:33:37;13.20;99.90
76787;DHT22;65739;51.482;5.702;2023-03-30T14:36:04;13.30;99.90
76787;DHT22;65739;51.482;5.702;2023-03-30T14:38:32;13.80;99.90
76787;DHT22;65739;51.482;5.702;2023-03-30T14:41:19;14.10;99.90
76787;DHT22;65739;51.482;5.702;2023-03-30T14:44:01;14.30;99.90
76787;DHT22;65739;51.482;5.702;2023-03-30T14:49:01;14.60;99.90
76787;DHT22;65739;51.482;5.702;2023-03-30T14:51:40;14.70;99.90
76787;DHT22;65739;51.482;5.702;2023-03-30T14:54:11;14.90;99.90
76787;DHT22;65739;51.482;5.702;2023-03-30T14:56:38;14.50;99.90
76787;DHT22;65739;51.482;5.702;2023-03-30T14:59:04;14.50;99.90
76787;DHT22;65739;51.482;5.702;2023-03-30T15:01:31;14.40;99.90
76787;DHT22;65739;51.482;5.702;2023-03-30T15:04:15;14.50;99.90
76787;DHT22;65739;51.482;5.702;2023-03-30T15:06:42;14.40;99.90
76787;DHT22;65739;51.482;5.702;2023-03-30T15:09:26;14.40;99.90
76787;DHT22;65739;51.482;5.702;2023-03-30T15:12:00;14.50;99.90
76787;DHT22;65739;51.482;5.702;2023-03-30T15:14:34;14.40;99.90
76787;DHT22;65739;51.482;5.702;2023-03-30T15:17:10;14.20;99.90
76787;DHT22;65739;51.482;5.702;2023-03-30T15:19:36;14.10;99.90
76787;DHT22;65739;51.482;5.702;2023-03-30T15:22:09;14.20;99.90
76787;DHT22;65739;51.482;5.702;2023-03-30T15:24:35;14.60;99.90
76787;DHT22;65739;51.482;5.702;2023-03-30T15:27:05;15.00;99.90
76787;DHT22;65739;51.482;5.702;2023-03-30T15:29:32;15.30;99.90
76787;DHT22;65739;51.482;5.702;2023-03-30T15:32:17;15.60;99.90
76787;DHT22;65739;51.482;5.702;2023-03-30T15:35:05;15.50;99.90
76787;DHT22;65739;51.482;5.702;2023-03-30T15:37:32;15.60;99.90
76787;DHT22;65739;51.482;5.702;2023-03-30T15:39:58;15.70;99.90
76787;DHT22;65739;51.482;5.702;2023-03-30T15:42:33;15.50;99.90
76787;DHT22;65739;51.482;5.702;2023-03-30T15:45:18;15.50;99.90
76787;DHT22;65739;51.482;5.702;2023-03-30T15:47:44;15.70;99.90
76787;DHT22;65739;51.482;5.702;2023-03-30T15:50:11;16.00;99.90
76787;DHT22;65739;51.482;5.702;2023-03-30T15:52:41;15.80;99.90
76787;DHT22;65739;51.482;5.702;2023-03-30T15:55:16;16.00;99.90
76787;DHT22;65739;51.482;5.702;2023-03-30T15:57:45;16.30;99.90
76787;DHT22;65739;51.482;5.702;2023-03-30T16:00:21;15.90;99.90
76787;DHT22;65739;51.482;5.702;2023-03-30T16:02:49;15.80;99.90
76787;DHT22;65739;51.482;5.702;2023-03-30T16:05:26;15.60;99.90
76787;DHT22;65739;51.482;5.702;2023-03-30T16:07:52;15.30;99.90
76787;DHT22;65739;51.482;5.702;2023-03-30T16:10:24;15.10;99.90
76787;DHT22;65739;51.482;5.702;2023-03-30T16:12:52;15.10;99.90
76787;DHT22;65739;51.482;5.702;2023-03-30T16:15:20;15.00;99.90
76787;DHT22;65739;51.482;5.702;2023-03-30T16:17:46;15.00;99.90
76787;DHT22;65739;51.482;5.702;2023-03-30T16:20:19;14.90;99.90
76787;DHT22;65739;51.482;5.702;2023-03-30T16:22:45;14.70;99.90
76787;DHT22;65739;51.482;5.702;2023-03-30T16:25:16;14.60;99.90
76787;DHT22;65739;51.482;5.702;2023-03-30T16:27:43;14.50;99.90
76787;DHT22;65739;51.482;5.702;2023-03-30T16:30:29;14.40;99.90
76787;DHT22;65739;51.482;5.702;2023-03-30T16:32:58;14.40;99.90
76787;DHT22;65739;51.482;5.702;2023-03-30T16:35:24;14.50;99.90
76787;DHT22;65739;51.482;5.702;2023-03-30T16:37:50;14.50;99.90
76787;DHT22;65739;51.482;5.702;2023-03-30T16:40:35;14.50;99.90
76787;DHT22;65739;51.482;5.702;2023-03-30T16:43:02;14.40;99.90
76787;DHT22;65739;51.482;5.702;2023-03-30T16:45:29;14.40;99.90
76787;DHT22;65739;51.482;5.702;2023-03-30T16:47:55;14.30;99.90
76787;DHT22;65739;51.482;5.702;2023-03-30T16:52:49;14.10;99.90
76787;DHT22;65739;51.482;5.702;2023-03-30T16:55:16;14.10;99.90
76787;DHT22;65739;51.482;5.702;2023-03-30T16:57:42;13.90;99.90
76787;DHT22;65739;51.482;5.702;2023-03-30T17:00:29;13.80;99.90
76787;DHT22;65739;51.482;5.702;2023-03-30T17:02:56;13.80;99.90
76787;DHT22;65739;51.482;5.702;2023-03-30T17:05:22;13.60;99.90
76787;DHT22;65739;51.482;5.702;2023-03-30T17:07:48;13.60;99.90
76787;DHT22;65739;51.482;5.702;2023-03-30T17:10:25;13.60;99.90
76787;DHT22;65739;51.482;5.702;2023-03-30T17:12:52;13.60;99.90
76787;DHT22;65739;51.482;5.702;2023-03-30T17:15:18;13.60;99.90
76787;DHT22;65739;51.482;5.702;2023-03-30T17:17:45;13.60;99.90
76787;DHT22;65739;51.482;5.702;2023-03-30T17:20:33;13.60;99.90
76787;DHT22;65739;51.482;5.702;2023-03-30T17:23:00;13.60;99.90
76787;DHT22;65739;51.482;5.702;2023-03-30T17:25:25;13.60;99.90
76787;DHT22;65739;51.482;5.702;2023-03-30T17:27:53;13.60;99.90
76787;DHT22;65739;51.482;5.702;2023-03-30T17:30:32;13.50;99.90
76787;DHT22;65739;51.482;5.702;2023-03-30T17:32:58;13.40;99.90
76787;DHT22;65739;51.482;5.702;2023-03-30T17:35:25;13.40;99.90
76787;DHT22;65739;51.482;5.702;2023-03-30T17:37:51;13.30;99.90
76787;DHT22;65739;51.482;5.702;2023-03-30T17:40:20;13.30;99.90
76787;DHT22;65739;51.482;5.702;2023-03-30T17:42:46;13.10;99.90
76787;DHT22;65739;51.482;5.702;2023-03-30T17:45:14;13.00;99.90
76787;DHT22;65739;51.482;5.702;2023-03-30T17:47:40;12.90;99.90
76787;DHT22;65739;51.482;5.702;2023-03-30T17:50:27;12.90;99.90
76787;DHT22;65739;51.482;5.702;2023-03-30T17:52:54;12.90;99.90
76787;DHT22;65739;51.482;5.702;2023-03-30T17:55:22;12.90;99.90